createdAt,value
2023-01-10T00:00:14.531Z,4.70
2023-01-10T00:02:42.465Z,4.70
2023-01-10T00:05:10.771Z,4.70
2023-01-10T00:07:38.979Z,4.70
2023-01-10T00:10:09.447Z,4.70
2023-01-10T00:12:55.122Z,4.70
2023-01-10T00:15:23.203Z,4.70
2023-01-10T00:17:51.611Z,4.70
2023-01-10T00:20:20.678Z,4.80
2023-01-10T00:22:50.580Z,4.70
2023-01-10T00:25:21.227Z,4.80
2023-01-10T00:27:53.937Z,4.80
2023-01-10T00:30:22.227Z,4.80
2023-01-10T00:32:50.140Z,4.80
2023-01-10T00:35:18.559Z,4.80
2023-01-10T00:37:46.694Z,4.80
2023-01-10T00:40:15.665Z,4.90
2023-01-10T00:43:02.469Z,4.80
2023-01-10T00:45:30.778Z,4.80
2023-01-10T00:47:58.786Z,4.90
2023-01-10T00:50:27.239Z,4.90
2023-01-10T00:52:55.305Z,4.90
2023-01-10T00:55:23.795Z,4.90
2023-01-10T00:57:54.897Z,4.90
2023-01-10T01:00:25.875Z,4.90
2023-01-10T01:02:57.278Z,4.90
2023-01-10T01:05:27.740Z,4.90
2023-01-10T01:07:56.961Z,4.90
2023-01-10T01:10:29.151Z,4.90
2023-01-10T01:13:06.512Z,4.90
2023-01-10T01:15:36.184Z,4.90
2023-01-10T01:18:04.605Z,4.90
2023-01-10T01:20:33.594Z,4.90
2023-01-10T01:23:01.743Z,4.80
2023-01-10T01:25:30.433Z,4.90
2023-01-10T01:27:59.820Z,4.80
2023-01-10T01:30:28.055Z,4.80
2023-01-10T01:32:56.247Z,4.80
2023-01-10T01:35:25.617Z,4.80
2023-01-10T01:37:54.324Z,4.80
2023-01-10T01:40:24.065Z,4.80
2023-01-10T01:42:55.849Z,4.90
2023-01-10T01:45:43.376Z,4.80
2023-01-10T01:48:20.841Z,4.80
2023-01-10T01:50:54.832Z,4.80
2023-01-10T01:53:28.681Z,4.90
2023-01-10T01:56:02.065Z,4.80
2023-01-10T01:58:37.161Z,4.80
2023-01-10T02:01:06.784Z,4.80
2023-01-10T02:03:35.241Z,4.90
2023-01-10T02:06:04.306Z,4.90
2023-01-10T02:08:32.249Z,4.90
2023-01-10T02:11:08.547Z,4.80
2023-01-10T02:13:41.555Z,4.80
2023-01-10T02:16:11.549Z,4.80
2023-01-10T02:18:42.502Z,4.80
2023-01-10T02:21:34.517Z,4.80
2023-01-10T02:24:26.997Z,4.80
2023-01-10T02:27:21.792Z,4.80
2023-01-10T02:30:26.369Z,4.80
2023-01-10T02:33:05.038Z,4.80
2023-01-10T02:35:51.837Z,4.80
2023-01-10T02:38:33.422Z,4.80
2023-01-10T02:41:10.765Z,4.80
2023-01-10T02:43:44.530Z,4.80
2023-01-10T02:46:17.379Z,4.70
2023-01-10T02:48:46.822Z,4.80
2023-01-10T02:51:20.009Z,4.70
2023-01-10T02:53:52.015Z,4.80
2023-01-10T02:56:49.760Z,4.70
2023-01-10T02:59:37.223Z,4.70
2023-01-10T03:02:11.927Z,4.70
2023-01-10T03:04:51.991Z,4.70
2023-01-10T03:07:27.450Z,4.70
2023-01-10T03:10:00.005Z,4.80
2023-01-10T03:12:36.927Z,4.70
2023-01-10T03:15:08.051Z,4.80
2023-01-10T03:17:38.097Z,4.80
2023-01-10T03:20:09.615Z,4.70
2023-01-10T03:22:40.522Z,4.70
2023-01-10T03:25:11.195Z,4.70
2023-01-10T03:27:46.416Z,4.60
2023-01-10T03:30:21.783Z,4.70
2023-01-10T03:32:49.822Z,4.60
2023-01-10T03:35:21.996Z,4.50
2023-01-10T03:37:56.469Z,4.50
2023-01-10T03:40:31.692Z,4.50
2023-01-10T03:43:22.188Z,4.40
2023-01-10T03:45:56.503Z,4.50
2023-01-10T03:48:30.019Z,4.40
2023-01-10T03:51:01.326Z,4.40
2023-01-10T03:53:30.064Z,4.40
2023-01-10T03:55:58.053Z,4.40
2023-01-10T03:58:26.423Z,4.50
2023-01-10T04:00:54.868Z,4.50
2023-01-10T04:03:22.996Z,4.50
2023-01-10T04:05:51.154Z,4.50
2023-01-10T04:08:20.490Z,4.60
2023-01-10T04:10:50.052Z,4.60
2023-01-10T04:13:18.026Z,4.60
2023-01-10T04:15:46.385Z,4.60
2023-01-10T04:18:15.843Z,4.60
2023-01-10T04:20:43.994Z,4.60
2023-01-10T04:23:11.922Z,4.60
2023-01-10T04:25:41.317Z,4.60
2023-01-10T04:28:09.851Z,4.60
2023-01-10T04:30:37.977Z,4.60
2023-01-10T04:33:07.187Z,4.60
2023-01-10T04:35:35.183Z,4.60
2023-01-10T04:38:03.152Z,4.60
2023-01-10T04:40:31.287Z,4.60
2023-01-10T04:43:00.872Z,4.60
2023-01-10T04:45:28.795Z,4.60
2023-01-10T04:48:00.239Z,4.60
2023-01-10T04:50:29.279Z,4.60
2023-01-10T04:52:57.313Z,4.60
2023-01-10T04:55:25.687Z,4.60
2023-01-10T04:57:53.726Z,4.60
2023-01-10T05:00:23.155Z,4.60
2023-01-10T05:02:56.372Z,4.60
2023-01-10T05:05:25.055Z,4.60
2023-01-10T05:07:53.267Z,4.60
2023-01-10T05:10:22.036Z,4.60
2023-01-10T05:12:51.226Z,4.70
2023-01-10T05:15:21.021Z,4.70
2023-01-10T05:17:54.798Z,4.70
2023-01-10T05:20:23.480Z,4.60
2023-01-10T05:22:51.620Z,4.60
2023-01-10T05:25:19.670Z,4.70
2023-01-10T05:27:49.709Z,4.60
2023-01-10T05:30:20.404Z,4.60
2023-01-10T05:32:51.053Z,4.60
2023-01-10T05:35:21.481Z,4.70
2023-01-10T05:37:51.091Z,4.60
2023-01-10T05:40:20.661Z,4.60
2023-01-10T05:42:50.195Z,4.70
2023-01-10T05:45:19.852Z,4.60
2023-01-10T05:47:50.121Z,4.60
2023-01-10T05:50:19.604Z,4.60
2023-01-10T05:52:48.278Z,4.60
2023-01-10T05:55:18.629Z,4.60
2023-01-10T05:57:47.730Z,4.60
2023-01-10T06:00:18.349Z,4.60
2023-01-10T06:02:48.372Z,4.60
2023-01-10T06:05:19.322Z,4.60
2023-01-10T06:07:49.367Z,4.60
2023-01-10T06:10:19.862Z,4.60
2023-01-10T06:12:50.279Z,4.60
2023-01-10T06:15:19.083Z,4.60
2023-01-10T06:17:47.175Z,4.60
2023-01-10T06:20:18.458Z,4.60
2023-01-10T06:22:47.639Z,4.60
2023-01-10T06:25:16.785Z,4.60
2023-01-10T06:27:46.989Z,4.60
2023-01-10T06:30:16.834Z,4.60
2023-01-10T06:32:44.838Z,4.60
2023-01-10T06:35:13.454Z,4.60
2023-01-10T06:37:42.840Z,4.60
2023-01-10T06:40:14.876Z,4.60
2023-01-10T06:42:43.518Z,4.60
2023-01-10T06:45:13.795Z,4.60
2023-01-10T06:47:42.392Z,4.60
2023-01-10T06:50:11.990Z,4.60
2023-01-10T06:52:43.199Z,4.60
2023-01-10T06:55:11.895Z,4.50
2023-01-10T06:57:39.939Z,4.50
2023-01-10T07:00:11.889Z,4.50
2023-01-10T07:02:39.859Z,4.50
2023-01-10T07:05:11.230Z,4.50
2023-01-10T07:07:40.053Z,4.40
2023-01-10T07:10:11.151Z,4.40
2023-01-10T07:12:39.357Z,4.40
2023-01-10T07:15:08.806Z,4.40
2023-01-10T07:17:37.406Z,4.40
2023-01-10T07:20:06.091Z,4.40
2023-01-10T07:22:34.174Z,4.40
2023-01-10T07:25:04.860Z,4.40
2023-01-10T07:27:36.754Z,4.40
2023-01-10T07:30:05.745Z,4.40
2023-01-10T07:32:36.595Z,4.30
2023-01-10T07:35:05.418Z,4.30
2023-01-10T07:37:33.376Z,4.30
2023-01-10T07:40:01.878Z,4.40
2023-01-10T07:42:30.571Z,4.30
2023-01-10T07:45:00.132Z,4.40
2023-01-10T07:47:31.841Z,4.40
2023-01-10T07:50:00.514Z,4.40
2023-01-10T07:52:29.704Z,4.50
2023-01-10T07:54:58.282Z,4.50
2023-01-10T07:57:27.406Z,4.50
2023-01-10T07:59:55.574Z,4.60
2023-01-10T08:02:27.569Z,4.60
2023-01-10T08:04:55.815Z,4.70
2023-01-10T08:07:24.164Z,4.70
2023-01-10T08:09:52.228Z,4.70
2023-01-10T08:12:22.007Z,4.60
2023-01-10T08:14:49.976Z,4.70
2023-01-10T08:17:18.363Z,4.70
2023-01-10T08:19:47.809Z,4.70
2023-01-10T08:22:16.004Z,4.70
2023-01-10T08:24:44.426Z,4.70
2023-01-10T08:27:12.468Z,4.70
2023-01-10T08:29:40.606Z,4.70
2023-01-10T08:32:09.419Z,4.70
2023-01-10T08:34:38.050Z,4.80
2023-01-10T08:37:07.498Z,4.80
2023-01-10T08:39:36.257Z,4.80
2023-01-10T08:42:04.925Z,4.80
2023-01-10T08:44:33.752Z,4.90
2023-01-10T08:47:01.701Z,4.90
2023-01-10T08:49:30.168Z,4.90
2023-01-10T08:51:59.561Z,4.90
2023-01-10T08:54:28.949Z,4.90
2023-01-10T08:56:57.275Z,4.90
2023-01-10T08:59:25.439Z,4.90
2023-01-10T09:01:53.710Z,4.90
2023-01-10T09:04:23.054Z,4.90
2023-01-10T09:06:51.221Z,5.00
2023-01-10T09:09:19.578Z,5.00
2023-01-10T09:11:49.266Z,5.00
2023-01-10T09:14:17.898Z,5.00
2023-01-10T09:16:46.796Z,5.10
2023-01-10T09:19:14.855Z,5.10
2023-01-10T09:21:43.874Z,5.10
2023-01-10T09:24:12.478Z,5.10
2023-01-10T09:26:40.420Z,5.20
2023-01-10T09:29:10.236Z,5.20
2023-01-10T09:31:38.841Z,5.20
2023-01-10T09:34:06.864Z,5.20
2023-01-10T09:36:35.397Z,5.20
2023-01-10T09:39:04.715Z,5.30
2023-01-10T09:41:53.239Z,5.30
2023-01-10T09:44:40.576Z,5.30
2023-01-10T09:47:22.472Z,5.30
2023-01-10T09:50:03.675Z,5.30
2023-01-10T09:52:34.612Z,5.30
2023-01-10T09:55:20.125Z,5.30
2023-01-10T09:57:48.672Z,5.30
2023-01-10T10:00:22.722Z,5.40
2023-01-10T10:02:53.808Z,5.40
2023-01-10T10:05:24.472Z,5.50
2023-01-10T10:07:55.731Z,5.60
2023-01-10T10:10:27.258Z,5.70
2023-01-10T10:13:26.945Z,5.70
2023-01-10T10:16:06.911Z,5.80
2023-01-10T10:18:43.988Z,5.90
2023-01-10T10:21:20.853Z,5.90
2023-01-10T10:24:23.260Z,5.90
2023-01-10T10:26:58.766Z,5.90
2023-01-10T10:29:51.912Z,5.90
2023-01-10T10:32:44.131Z,6.00
2023-01-10T10:35:18.023Z,5.90
2023-01-10T10:37:49.721Z,5.90
2023-01-10T10:40:20.652Z,5.90
2023-01-10T10:42:51.685Z,5.90
2023-01-10T10:45:25.385Z,5.90
2023-01-10T10:48:00.494Z,5.90
2023-01-10T10:50:35.927Z,5.90
2023-01-10T10:53:05.527Z,5.90
2023-01-10T10:55:37.674Z,6.00
2023-01-10T10:58:08.069Z,6.00
2023-01-10T11:00:36.315Z,6.00
2023-01-10T11:03:14.450Z,6.00
2023-01-10T11:05:46.369Z,6.00
2023-01-10T11:08:18.207Z,6.00
2023-01-10T11:10:49.875Z,6.00
2023-01-10T11:13:22.084Z,6.00
2023-01-10T11:15:51.775Z,6.00
2023-01-10T11:18:24.003Z,6.00
2023-01-10T11:20:58.584Z,6.00
2023-01-10T11:23:36.982Z,6.00
2023-01-10T11:26:06.345Z,6.00
2023-01-10T11:28:35.504Z,6.00
2023-01-10T11:31:04.858Z,6.00
2023-01-10T11:33:36.291Z,6.00
2023-01-10T11:36:06.692Z,6.00
2023-01-10T11:38:35.318Z,6.10
2023-01-10T11:41:06.365Z,6.00
2023-01-10T11:43:37.681Z,6.10
2023-01-10T11:46:14.222Z,6.10
2023-01-10T11:49:08.662Z,6.10
2023-01-10T11:51:40.811Z,6.10
2023-01-10T11:54:14.050Z,6.10
2023-01-10T11:56:43.442Z,6.10
2023-01-10T11:59:14.698Z,6.10
2023-01-10T12:01:46.667Z,6.10
2023-01-10T12:04:21.541Z,6.10
2023-01-10T12:06:54.538Z,6.20
2023-01-10T12:09:37.119Z,6.10
2023-01-10T12:12:07.614Z,6.10
2023-01-10T12:14:36.471Z,6.00
2023-01-10T12:17:05.154Z,5.90
2023-01-10T12:19:35.606Z,5.90
2023-01-10T12:22:09.409Z,5.90
2023-01-10T12:24:41.836Z,5.90
2023-01-10T12:27:13.957Z,5.90
2023-01-10T12:29:45.391Z,5.90
2023-01-10T12:32:21.012Z,5.90
2023-01-10T12:34:54.528Z,5.80
2023-01-10T12:37:27.753Z,5.80
2023-01-10T12:40:01.611Z,5.80
2023-01-10T12:42:57.383Z,5.80
2023-01-10T12:45:29.176Z,5.80
2023-01-10T12:48:03.732Z,5.80
2023-01-10T12:50:38.254Z,5.80
2023-01-10T12:53:13.398Z,5.80
2023-01-10T12:55:44.675Z,5.70
2023-01-10T12:58:21.830Z,5.70
2023-01-10T13:00:52.702Z,5.70
2023-01-10T13:03:22.604Z,5.70
2023-01-10T13:05:53.111Z,5.70
2023-01-10T13:08:26.698Z,5.60
2023-01-10T13:10:56.899Z,5.60
2023-01-10T13:13:33.788Z,5.70
2023-01-10T13:16:20.032Z,5.70
2023-01-10T13:19:03.500Z,5.70
2023-01-10T13:21:34.525Z,5.70
2023-01-10T13:24:04.804Z,5.70
2023-01-10T13:26:53.707Z,5.70
2023-01-10T13:29:24.019Z,5.80
2023-01-10T13:31:57.561Z,5.80
2023-01-10T13:34:33.157Z,5.80
2023-01-10T13:37:06.298Z,5.80
2023-01-10T13:39:37.460Z,5.80
2023-01-10T13:42:47.782Z,5.80
2023-01-10T13:45:21.622Z,5.80
2023-01-10T13:48:00.953Z,5.80
2023-01-10T13:50:51.991Z,5.70
2023-01-10T13:53:44.051Z,5.70
2023-01-10T13:56:34.924Z,5.70
2023-01-10T13:59:21.800Z,5.70
2023-01-10T14:02:11.908Z,5.70
2023-01-10T14:04:46.149Z,5.70
2023-01-10T14:07:28.507Z,5.70
2023-01-10T14:10:05.450Z,5.70
2023-01-10T14:12:37.292Z,5.70
2023-01-10T14:15:09.882Z,5.60
2023-01-10T14:17:40.074Z,5.70
2023-01-10T14:20:20.211Z,5.70
2023-01-10T14:23:02.211Z,5.70
2023-01-10T14:25:34.114Z,5.70
2023-01-10T14:28:03.400Z,5.60
2023-01-10T14:30:33.849Z,5.60
2023-01-10T14:33:06.429Z,5.60
2023-01-10T14:35:38.375Z,5.60
2023-01-10T14:38:14.521Z,5.60
2023-01-10T14:40:46.095Z,5.60
2023-01-10T14:43:17.264Z,5.60
2023-01-10T14:45:52.738Z,5.60
2023-01-10T14:48:30.031Z,5.60
2023-01-10T14:51:21.108Z,5.60
2023-01-10T14:53:56.548Z,5.60
2023-01-10T14:56:28.639Z,5.50
2023-01-10T14:58:56.757Z,5.50
2023-01-10T15:01:28.175Z,5.50
2023-01-10T15:03:57.885Z,5.40
2023-01-10T15:06:26.329Z,5.40
2023-01-10T15:09:03.581Z,5.40
2023-01-10T15:11:33.528Z,5.40
2023-01-10T15:14:07.707Z,5.30
2023-01-10T15:16:38.866Z,5.40
2023-01-10T15:19:07.005Z,5.30
2023-01-10T15:21:35.286Z,5.30
2023-01-10T15:24:33.057Z,5.30
2023-01-10T15:27:05.670Z,5.20
2023-01-10T15:29:34.808Z,5.20
2023-01-10T15:32:10.389Z,5.20
2023-01-10T15:34:40.080Z,5.20
2023-01-10T15:37:17.818Z,5.10
2023-01-10T15:39:48.260Z,5.20
2023-01-10T15:42:20.998Z,5.10
2023-01-10T15:44:54.292Z,5.10
2023-01-10T15:47:45.053Z,5.10
2023-01-10T15:50:22.027Z,5.10
2023-01-10T15:52:52.376Z,5.10
2023-01-10T15:55:42.412Z,5.10
2023-01-10T15:58:20.367Z,5.10
2023-01-10T16:00:50.555Z,5.10
2023-01-10T16:03:25.633Z,5.00
2023-01-10T16:05:59.207Z,5.00
2023-01-10T16:08:31.163Z,5.00
2023-01-10T16:11:01.572Z,5.00
2023-01-10T16:13:31.736Z,5.00
2023-01-10T16:16:01.106Z,5.00
2023-01-10T16:18:29.335Z,4.90
2023-01-10T16:20:59.994Z,5.00
2023-01-10T16:23:32.802Z,5.00
2023-01-10T16:26:03.050Z,4.90
2023-01-10T16:28:37.391Z,4.90
2023-01-10T16:31:06.842Z,4.90
2023-01-10T16:33:36.889Z,4.90
2023-01-10T16:36:11.796Z,4.90
2023-01-10T16:38:41.380Z,4.90
2023-01-10T16:41:30.057Z,4.90
2023-01-10T16:44:00.517Z,4.90
2023-01-10T16:46:29.114Z,4.90
2023-01-10T16:48:57.531Z,4.80
2023-01-10T16:51:27.645Z,4.80
2023-01-10T16:53:56.348Z,4.70
2023-01-10T16:56:26.427Z,4.70
2023-01-10T16:58:55.597Z,4.70
2023-01-10T17:01:30.147Z,4.70
2023-01-10T17:03:59.114Z,4.70
2023-01-10T17:06:27.619Z,4.60
2023-01-10T17:08:55.744Z,4.60
2023-01-10T17:11:29.042Z,4.60
2023-01-10T17:13:59.719Z,4.60
2023-01-10T17:16:29.909Z,4.50
2023-01-10T17:18:58.160Z,4.50
2023-01-10T17:21:29.464Z,4.50
2023-01-10T17:23:57.699Z,4.50
2023-01-10T17:26:26.688Z,4.50
2023-01-10T17:28:55.099Z,4.50
2023-01-10T17:31:24.331Z,4.50
2023-01-10T17:33:54.684Z,4.50
2023-01-10T17:36:29.621Z,4.50
2023-01-10T17:38:58.139Z,4.50
2023-01-10T17:41:26.781Z,4.50
2023-01-10T17:43:54.809Z,4.40
2023-01-10T17:46:23.633Z,4.50
2023-01-10T17:48:51.604Z,4.40
2023-01-10T17:51:22.941Z,4.40
2023-01-10T17:53:51.700Z,4.50
2023-01-10T17:56:19.687Z,4.40
2023-01-10T17:58:51.592Z,4.40
2023-01-10T18:01:24.675Z,4.40
2023-01-10T18:03:56.778Z,4.40
2023-01-10T18:06:26.392Z,4.40
2023-01-10T18:08:56.826Z,4.40
2023-01-10T18:11:26.017Z,4.40
2023-01-10T18:13:54.027Z,4.40
2023-01-10T18:16:22.581Z,4.40
2023-01-10T18:18:51.599Z,4.40
2023-01-10T18:21:21.864Z,4.40
2023-01-10T18:23:57.599Z,4.30
2023-01-10T18:26:26.263Z,4.30
2023-01-10T18:28:54.235Z,4.30
2023-01-10T18:31:22.785Z,4.30
2023-01-10T18:33:50.832Z,4.20
2023-01-10T18:36:21.546Z,4.10
2023-01-10T18:38:55.377Z,4.10
2023-01-10T18:41:28.696Z,4.00
2023-01-10T18:43:57.125Z,3.90
2023-01-10T18:46:25.577Z,3.80
2023-01-10T18:48:55.358Z,3.80
2023-01-10T18:51:24.825Z,3.70
2023-01-10T18:53:54.705Z,3.70
2023-01-10T18:56:23.234Z,3.60
2023-01-10T18:58:51.749Z,3.60
2023-01-10T19:01:22.057Z,3.60
2023-01-10T19:03:50.913Z,3.50
2023-01-10T19:06:22.880Z,3.40
2023-01-10T19:08:51.850Z,3.40
2023-01-10T19:11:22.319Z,3.40
2023-01-10T19:13:53.633Z,3.40
2023-01-10T19:16:23.453Z,3.40
2023-01-10T19:18:52.679Z,3.30
2023-01-10T19:21:21.455Z,3.30
2023-01-10T19:23:51.429Z,3.30
2023-01-10T19:26:20.946Z,3.30
2023-01-10T19:28:49.478Z,3.20
2023-01-10T19:31:18.209Z,3.10
2023-01-10T19:33:48.158Z,3.10
2023-01-10T19:36:17.087Z,2.90
2023-01-10T19:38:45.731Z,2.90
2023-01-10T19:41:14.615Z,2.90
2023-01-10T19:43:43.938Z,2.80
2023-01-10T19:46:13.665Z,2.70
2023-01-10T19:48:42.626Z,2.70
2023-01-10T19:51:12.659Z,2.60
2023-01-10T19:53:45.506Z,2.50
2023-01-10T19:56:18.409Z,2.50
2023-01-10T19:58:48.683Z,2.50
2023-01-10T20:01:19.945Z,2.50
2023-01-10T20:03:51.326Z,2.40
2023-01-10T20:06:25.297Z,2.40
2023-01-10T20:08:55.029Z,2.30
2023-01-10T20:11:25.587Z,2.30
2023-01-10T20:13:55.981Z,2.20
2023-01-10T20:16:26.835Z,2.10
2023-01-10T20:18:55.017Z,2.10
2023-01-10T20:21:24.926Z,2.10
2023-01-10T20:23:55.217Z,2.00
2023-01-10T20:26:26.094Z,1.90
2023-01-10T20:28:59.738Z,1.90
2023-01-10T20:31:28.294Z,1.90
2023-01-10T20:33:56.304Z,1.80
2023-01-10T20:36:27.764Z,1.80
2023-01-10T20:38:56.686Z,1.80
2023-01-10T20:41:26.557Z,1.80
2023-01-10T20:43:56.974Z,1.80
2023-01-10T20:46:27.362Z,1.80
2023-01-10T20:48:57.182Z,1.70
2023-01-10T20:51:30.615Z,1.70
2023-01-10T20:53:59.723Z,1.70
2023-01-10T20:56:29.521Z,1.70
2023-01-10T20:59:01.071Z,1.60
2023-01-10T21:01:35.504Z,1.60
2023-01-10T21:04:07.677Z,1.50
2023-01-10T21:06:38.208Z,1.50
2023-01-10T21:09:07.145Z,1.50
2023-01-10T21:11:52.090Z,1.60
2023-01-10T21:14:28.560Z,1.60
2023-01-10T21:16:59.417Z,1.50
2023-01-10T21:19:27.878Z,1.50
2023-01-10T21:21:56.875Z,1.40
2023-01-10T21:24:25.519Z,1.50
2023-01-10T21:26:53.504Z,1.40
2023-01-10T21:29:21.680Z,1.40
2023-01-10T21:31:53.973Z,1.40
2023-01-10T21:34:22.069Z,1.40
2023-01-10T21:36:50.055Z,1.30
2023-01-10T21:39:19.094Z,1.40
2023-01-10T21:42:04.587Z,1.30
2023-01-10T21:44:32.716Z,1.30
2023-01-10T21:47:02.817Z,1.30
2023-01-10T21:49:31.680Z,1.30
2023-01-10T21:52:00.153Z,1.30
2023-01-10T21:54:28.216Z,1.20
2023-01-10T21:56:56.243Z,1.20
2023-01-10T21:59:24.335Z,1.10
2023-01-10T22:01:52.630Z,1.10
2023-01-10T22:04:21.971Z,1.10
2023-01-10T22:06:50.934Z,1.10
2023-01-10T22:09:19.157Z,1.10
2023-01-10T22:11:47.218Z,1.10
2023-01-10T22:14:15.747Z,1.10
2023-01-10T22:16:44.153Z,1.10
2023-01-10T22:19:13.481Z,1.10
2023-01-10T22:21:43.003Z,1.00
2023-01-10T22:24:11.853Z,1.00
2023-01-10T22:26:39.909Z,1.10
2023-01-10T22:29:08.035Z,1.10
2023-01-10T22:31:36.099Z,1.00
2023-01-10T22:34:04.081Z,1.00
2023-01-10T22:36:32.156Z,1.00
2023-01-10T22:39:01.879Z,0.90
2023-01-10T22:41:30.148Z,0.90
2023-01-10T22:43:58.629Z,0.80
2023-01-10T22:46:27.079Z,0.80
2023-01-10T22:48:55.192Z,0.80
2023-01-10T22:51:28.459Z,0.90
2023-01-10T22:53:59.283Z,0.90
2023-01-10T22:56:28.737Z,0.90
2023-01-10T22:58:57.176Z,0.90
2023-01-10T23:01:26.295Z,0.90
2023-01-10T23:03:54.335Z,0.90
2023-01-10T23:06:22.547Z,0.80
2023-01-10T23:08:51.350Z,0.80
2023-01-10T23:11:21.449Z,0.80
2023-01-10T23:13:50.903Z,0.80
2023-01-10T23:16:22.100Z,0.80
2023-01-10T23:18:50.920Z,0.80
2023-01-10T23:21:19.299Z,0.80
2023-01-10T23:23:47.306Z,0.80
2023-01-10T23:26:15.404Z,0.80
2023-01-10T23:28:46.870Z,0.90
2023-01-10T23:31:18.645Z,0.90
2023-01-10T23:33:47.263Z,0.90
2023-01-10T23:36:15.842Z,1.00
2023-01-10T23:38:43.927Z,0.90
2023-01-10T23:41:12.900Z,1.00
2023-01-10T23:43:40.872Z,1.00
2023-01-10T23:46:09.763Z,1.00
2023-01-10T23:48:39.210Z,1.00
2023-01-10T23:51:11.372Z,1.00
2023-01-10T23:53:39.468Z,1.00
2023-01-10T23:56:09.340Z,1.00
2023-01-10T23:58:37.539Z,1.00
